Aviation Digital Data Service (ADDS)

Output produced by METARs form (0639 UTC 24 March 2019)
found at http://www.aviationweather.gov/metar/data/
 
LHSM 240615Z 28002KT CAVOK 05/04 Q1024
TAF LHSM 240515Z 2406/2415 VRB02KT CAVOK 
     TEMPO 2406/2408 3000 BR
       
LHDC 240615Z AUTO VRB03KT 8000 NCD 06/M01 Q1023
TAF AMD LHDC 240440Z 2404/2412 19004KT CAVOK
       
LHBP 240630Z 00000KT 5000 BR NSC 08/07 Q1023 BECMG CAVOK
TAF LHBP 240515Z 2406/2506 VRB03KT CAVOK 
     TEMPO 2412/2419 28006KT SCT040 
     BECMG 2423/2503 31009KT 
     TEMPO 2423/2503 -SHRA BKN040
       
LHKE 240615Z 00000KT 7000 NSC 08/04 Q1023 BECMG CAVOK RMK BLACK
TAF LHKE 240515Z 2406/2415 VRB02KT 5000 BR NSC 
     TEMPO 2406/2407 3000 BR MIBCFG 
     BECMG 2407/2408 25005KT CAVOK
       
LHPA 240615Z 16002KT CAVOK 06/04 Q1024 NOSIG RMK BLU
TAF LHPA 240515Z 2406/2506 VRB02KT CAVOK 
     BECMG 2408/2410 27005KT 
     BECMG 2415/2417 VRB02KT 
     BECMG 2421/2423 30006KT 9999 SCT040 BKN083 
     TEMPO 2503/2506 33010G20KT
       
LHSN 240615Z 00000KT 8000 NSC 09/04 Q1022 NOSIG RMK BLU
TAF LHSN 240515Z 2406/2415 VRB03KT 6000 MIBCFG NSC 
     BECMG 2406/2408 25005KT CAVOK